Terminal Aerodrome Forecast
Issued by NWS

Home | Current Version | Previous Version | Text Only | Print | Product List | Glossary On
Versions: 1 2 3 4 5 6 7 8 9 10 11 12 13 14 15
000
FTUS43 KAPX 280539
TAFMBL
TAF
KMBL 280539Z 2806/2906 VRB03KT P6SM BKN100
     FM281200 VRB03KT P6SM VCSH BKN060
     FM281500 21005KT 5SM -SHRA BKN050
     FM282100 30005KT P6SM -SHRA OVC040
     FM290100 25004KT P6SM BKN060=

USA.gov is the U.S. government's official web portal to all federal, state and local government web resources and services.